sensor_id;sensor_type;location;lat;lon;timestamp;P1;durP1;ratioP1;P2;durP2;ratioP2
57317;SDS011;43157;50.982;18.132;2023-04-07T00:00:55;33.80;;;15.40;;
57317;SDS011;43157;50.982;18.132;2023-04-07T00:03:21;33.20;;;15.90;;
57317;SDS011;43157;50.982;18.132;2023-04-07T00:05:47;32.70;;;15.40;;
57317;SDS011;43157;50.982;18.132;2023-04-07T00:08:13;38.20;;;18.80;;
57317;SDS011;43157;50.982;18.132;2023-04-07T00:10:39;31.80;;;15.20;;
57317;SDS011;43157;50.982;18.132;2023-04-07T00:13:04;35.00;;;16.50;;
57317;SDS011;43157;50.982;18.132;2023-04-07T00:15:30;33.20;;;17.30;;
57317;SDS011;43157;50.982;18.132;2023-04-07T00:17:55;35.90;;;18.70;;
57317;SDS011;43157;50.982;18.132;2023-04-07T00:20:21;39.60;;;19.10;;
57317;SDS011;43157;50.982;18.132;2023-04-07T00:22:47;37.90;;;17.50;;
57317;SDS011;43157;50.982;18.132;2023-04-07T00:25:14;35.70;;;17.30;;
57317;SDS011;43157;50.982;18.132;2023-04-07T00:27:39;35.80;;;17.90;;
57317;SDS011;43157;50.982;18.132;2023-04-07T00:30:05;31.90;;;15.60;;
57317;SDS011;43157;50.982;18.132;2023-04-07T00:32:32;27.10;;;13.00;;
57317;SDS011;43157;50.982;18.132;2023-04-07T00:34:57;30.00;;;14.40;;
57317;SDS011;43157;50.982;18.132;2023-04-07T00:37:23;32.50;;;16.30;;
57317;SDS011;43157;50.982;18.132;2023-04-07T00:39:50;28.00;;;13.60;;
57317;SDS011;43157;50.982;18.132;2023-04-07T00:42:16;30.00;;;13.20;;
57317;SDS011;43157;50.982;18.132;2023-04-07T00:44:42;26.90;;;12.40;;
57317;SDS011;43157;50.982;18.132;2023-04-07T00:47:08;29.10;;;13.30;;
57317;SDS011;43157;50.982;18.132;2023-04-07T00:49:33;28.00;;;13.10;;
57317;SDS011;43157;50.982;18.132;2023-04-07T00:52:01;29.60;;;14.00;;
57317;SDS011;43157;50.982;18.132;2023-04-07T00:54:27;26.50;;;12.70;;
57317;SDS011;43157;50.982;18.132;2023-04-07T00:56:55;30.60;;;13.90;;
57317;SDS011;43157;50.982;18.132;2023-04-07T00:59:21;27.20;;;13.30;;
57317;SDS011;43157;50.982;18.132;2023-04-07T01:01:50;30.40;;;13.00;;
57317;SDS011;43157;50.982;18.132;2023-04-07T01:04:26;30.40;;;12.00;;
57317;SDS011;43157;50.982;18.132;2023-04-07T01:06:53;27.10;;;12.20;;
57317;SDS011;43157;50.982;18.132;2023-04-07T01:09:28;23.10;;;11.40;;
57317;SDS011;43157;50.982;18.132;2023-04-07T01:12:13;29.50;;;12.50;;
57317;SDS011;43157;50.982;18.132;2023-04-07T01:14:48;27.30;;;11.90;;
57317;SDS011;43157;50.982;18.132;2023-04-07T01:17:16;23.40;;;10.70;;
57317;SDS011;43157;50.982;18.132;2023-04-07T01:19:47;27.10;;;13.10;;
57317;SDS011;43157;50.982;18.132;2023-04-07T01:22:31;34.90;;;15.10;;
57317;SDS011;43157;50.982;18.132;2023-04-07T01:25:22;29.50;;;12.50;;
57317;SDS011;43157;50.982;18.132;2023-04-07T01:30:17;24.70;;;10.00;;
57317;SDS011;43157;50.982;18.132;2023-04-07T01:32:44;23.20;;;10.00;;
57317;SDS011;43157;50.982;18.132;2023-04-07T01:35:12;24.40;;;11.10;;
57317;SDS011;43157;50.982;18.132;2023-04-07T01:37:38;25.70;;;12.20;;
57317;SDS011;43157;50.982;18.132;2023-04-07T01:40:05;22.00;;;10.50;;
57317;SDS011;43157;50.982;18.132;2023-04-07T01:42:32;24.90;;;11.00;;
57317;SDS011;43157;50.982;18.132;2023-04-07T01:44:58;24.50;;;9.50;;
57317;SDS011;43157;50.982;18.132;2023-04-07T01:47:25;24.60;;;11.40;;
57317;SDS011;43157;50.982;18.132;2023-04-07T01:49:56;25.20;;;11.70;;
57317;SDS011;43157;50.982;18.132;2023-04-07T01:52:23;26.50;;;11.70;;
57317;SDS011;43157;50.982;18.132;2023-04-07T01:54:52;25.50;;;11.40;;
57317;SDS011;43157;50.982;18.132;2023-04-07T01:57:22;23.70;;;11.10;;
57317;SDS011;43157;50.982;18.132;2023-04-07T01:59:47;25.60;;;12.10;;
57317;SDS011;43157;50.982;18.132;2023-04-07T02:02:13;24.80;;;11.80;;
57317;SDS011;43157;50.982;18.132;2023-04-07T02:04:39;26.10;;;11.70;;
57317;SDS011;43157;50.982;18.132;2023-04-07T02:07:14;23.00;;;10.70;;
57317;SDS011;43157;50.982;18.132;2023-04-07T02:09:47;22.60;;;10.40;;
57317;SDS011;43157;50.982;18.132;2023-04-07T02:12:16;23.70;;;10.60;;
57317;SDS011;43157;50.982;18.132;2023-04-07T02:14:42;23.40;;;9.80;;
57317;SDS011;43157;50.982;18.132;2023-04-07T02:17:07;25.20;;;12.00;;
57317;SDS011;43157;50.982;18.132;2023-04-07T02:19:33;23.20;;;11.20;;
57317;SDS011;43157;50.982;18.132;2023-04-07T02:22:03;23.70;;;11.60;;
57317;SDS011;43157;50.982;18.132;2023-04-07T02:24:30;25.10;;;12.20;;
57317;SDS011;43157;50.982;18.132;2023-04-07T02:26:56;24.00;;;10.50;;
57317;SDS011;43157;50.982;18.132;2023-04-07T02:29:21;26.20;;;12.30;;
57317;SDS011;43157;50.982;18.132;2023-04-07T02:31:47;26.40;;;11.50;;
57317;SDS011;43157;50.982;18.132;2023-04-07T02:34:12;21.80;;;9.50;;
57317;SDS011;43157;50.982;18.132;2023-04-07T02:36:38;23.00;;;10.60;;
57317;SDS011;43157;50.982;18.132;2023-04-07T02:39:04;25.00;;;11.40;;
57317;SDS011;43157;50.982;18.132;2023-04-07T02:41:29;25.20;;;11.60;;
57317;SDS011;43157;50.982;18.132;2023-04-07T02:43:55;25.60;;;11.90;;
57317;SDS011;43157;50.982;18.132;2023-04-07T02:46:20;23.20;;;11.20;;
57317;SDS011;43157;50.982;18.132;2023-04-07T02:48:46;25.30;;;11.10;;
57317;SDS011;43157;50.982;18.132;2023-04-07T02:51:12;23.20;;;10.20;;
57317;SDS011;43157;50.982;18.132;2023-04-07T02:53:37;23.50;;;10.60;;
57317;SDS011;43157;50.982;18.132;2023-04-07T02:56:03;24.80;;;11.40;;
57317;SDS011;43157;50.982;18.132;2023-04-07T02:58:29;25.60;;;11.20;;
57317;SDS011;43157;50.982;18.132;2023-04-07T03:00:54;26.80;;;11.80;;
57317;SDS011;43157;50.982;18.132;2023-04-07T03:03:20;25.40;;;12.80;;
57317;SDS011;43157;50.982;18.132;2023-04-07T03:05:45;22.40;;;11.00;;
57317;SDS011;43157;50.982;18.132;2023-04-07T03:08:11;29.30;;;12.40;;
57317;SDS011;43157;50.982;18.132;2023-04-07T03:10:37;26.10;;;13.40;;
57317;SDS011;43157;50.982;18.132;2023-04-07T03:13:03;23.50;;;11.20;;
57317;SDS011;43157;50.982;18.132;2023-04-07T03:15:28;28.70;;;11.90;;
57317;SDS011;43157;50.982;18.132;2023-04-07T03:17:54;26.40;;;11.90;;
57317;SDS011;43157;50.982;18.132;2023-04-07T03:20:19;26.90;;;12.60;;
57317;SDS011;43157;50.982;18.132;2023-04-07T03:22:45;26.60;;;13.00;;
57317;SDS011;43157;50.982;18.132;2023-04-07T03:25:11;28.50;;;12.70;;
57317;SDS011;43157;50.982;18.132;2023-04-07T03:27:38;29.40;;;12.90;;
57317;SDS011;43157;50.982;18.132;2023-04-07T03:30:03;27.30;;;10.90;;
57317;SDS011;43157;50.982;18.132;2023-04-07T03:32:30;27.70;;;13.40;;
57317;SDS011;43157;50.982;18.132;2023-04-07T03:34:55;28.50;;;12.20;;
57317;SDS011;43157;50.982;18.132;2023-04-07T03:37:21;30.80;;;13.40;;
57317;SDS011;43157;50.982;18.132;2023-04-07T03:39:47;28.40;;;13.70;;
57317;SDS011;43157;50.982;18.132;2023-04-07T03:42:12;31.70;;;14.70;;
57317;SDS011;43157;50.982;18.132;2023-04-07T03:44:38;30.50;;;13.20;;
57317;SDS011;43157;50.982;18.132;2023-04-07T03:47:04;29.70;;;13.60;;
57317;SDS011;43157;50.982;18.132;2023-04-07T03:49:29;31.30;;;13.00;;
57317;SDS011;43157;50.982;18.132;2023-04-07T03:51:56;37.40;;;16.20;;
57317;SDS011;43157;50.982;18.132;2023-04-07T03:54:21;30.00;;;12.60;;
57317;SDS011;43157;50.982;18.132;2023-04-07T03:56:47;33.50;;;15.10;;
57317;SDS011;43157;50.982;18.132;2023-04-07T03:59:13;31.20;;;13.40;;
57317;SDS011;43157;50.982;18.132;2023-04-07T04:14:03;26.10;;;13.30;;
57317;SDS011;43157;50.982;18.132;2023-04-07T04:16:29;27.40;;;13.20;;
57317;SDS011;43157;50.982;18.132;2023-04-07T04:18:55;25.40;;;11.80;;
57317;SDS011;43157;50.982;18.132;2023-04-07T04:21:21;32.00;;;13.80;;
57317;SDS011;43157;50.982;18.132;2023-04-07T04:23:47;30.00;;;14.00;;
57317;SDS011;43157;50.982;18.132;2023-04-07T04:26:12;30.90;;;13.30;;
57317;SDS011;43157;50.982;18.132;2023-04-07T04:28:38;30.20;;;12.90;;
57317;SDS011;43157;50.982;18.132;2023-04-07T04:31:03;31.40;;;14.30;;
57317;SDS011;43157;50.982;18.132;2023-04-07T04:33:29;33.00;;;13.50;;
57317;SDS011;43157;50.982;18.132;2023-04-07T04:35:55;29.90;;;12.80;;
57317;SDS011;43157;50.982;18.132;2023-04-07T04:38:21;34.20;;;15.00;;
57317;SDS011;43157;50.982;18.132;2023-04-07T04:40:46;37.00;;;14.60;;
57317;SDS011;43157;50.982;18.132;2023-04-07T04:43:12;33.20;;;12.80;;
57317;SDS011;43157;50.982;18.132;2023-04-07T04:45:38;28.50;;;12.40;;
57317;SDS011;43157;50.982;18.132;2023-04-07T04:48:04;33.80;;;14.90;;
57317;SDS011;43157;50.982;18.132;2023-04-07T04:50:30;34.50;;;15.20;;
57317;SDS011;43157;50.982;18.132;2023-04-07T04:52:56;34.90;;;15.50;;
57317;SDS011;43157;50.982;18.132;2023-04-07T04:55:22;32.40;;;13.60;;
57317;SDS011;43157;50.982;18.132;2023-04-07T04:57:47;31.20;;;14.40;;
57317;SDS011;43157;50.982;18.132;2023-04-07T05:00:13;32.90;;;14.00;;
57317;SDS011;43157;50.982;18.132;2023-04-07T05:02:39;31.20;;;13.10;;
57317;SDS011;43157;50.982;18.132;2023-04-07T05:05:06;35.90;;;15.20;;
57317;SDS011;43157;50.982;18.132;2023-04-07T05:07:32;36.40;;;16.20;;
57317;SDS011;43157;50.982;18.132;2023-04-07T05:09:58;34.50;;;15.10;;
57317;SDS011;43157;50.982;18.132;2023-04-07T05:12:23;38.00;;;16.00;;
57317;SDS011;43157;50.982;18.132;2023-04-07T05:14:49;29.30;;;13.20;;
57317;SDS011;43157;50.982;18.132;2023-04-07T05:17:15;28.20;;;13.70;;
57317;SDS011;43157;50.982;18.132;2023-04-07T05:19:41;31.20;;;13.70;;
57317;SDS011;43157;50.982;18.132;2023-04-07T05:22:07;30.20;;;15.70;;
57317;SDS011;43157;50.982;18.132;2023-04-07T05:24:32;30.00;;;13.30;;
57317;SDS011;43157;50.982;18.132;2023-04-07T05:26:58;31.70;;;13.60;;
57317;SDS011;43157;50.982;18.132;2023-04-07T05:29:23;31.50;;;13.10;;
57317;SDS011;43157;50.982;18.132;2023-04-07T05:31:49;28.60;;;12.80;;
57317;SDS011;43157;50.982;18.132;2023-04-07T05:34:15;27.10;;;12.40;;
57317;SDS011;43157;50.982;18.132;2023-04-07T05:36:40;29.20;;;12.80;;
57317;SDS011;43157;50.982;18.132;2023-04-07T05:39:06;29.60;;;13.40;;
57317;SDS011;43157;50.982;18.132;2023-04-07T05:41:32;34.00;;;14.40;;
57317;SDS011;43157;50.982;18.132;2023-04-07T05:43:57;34.90;;;15.10;;
57317;SDS011;43157;50.982;18.132;2023-04-07T05:46:23;32.00;;;13.00;;
57317;SDS011;43157;50.982;18.132;2023-04-07T05:48:49;34.30;;;14.90;;
57317;SDS011;43157;50.982;18.132;2023-04-07T05:51:15;30.40;;;13.20;;
57317;SDS011;43157;50.982;18.132;2023-04-07T05:53:40;29.40;;;12.40;;
57317;SDS011;43157;50.982;18.132;2023-04-07T05:56:06;29.70;;;13.00;;
57317;SDS011;43157;50.982;18.132;2023-04-07T05:58:32;37.30;;;17.00;;
57317;SDS011;43157;50.982;18.132;2023-04-07T06:00:57;28.80;;;13.20;;
57317;SDS011;43157;50.982;18.132;2023-04-07T06:03:23;26.30;;;11.70;;
57317;SDS011;43157;50.982;18.132;2023-04-07T06:05:49;31.30;;;14.10;;
57317;SDS011;43157;50.982;18.132;2023-04-07T06:08:14;27.40;;;13.00;;
57317;SDS011;43157;50.982;18.132;2023-04-07T06:10:40;27.80;;;11.80;;
57317;SDS011;43157;50.982;18.132;2023-04-07T06:13:06;36.60;;;15.20;;
57317;SDS011;43157;50.982;18.132;2023-04-07T06:15:32;34.50;;;15.50;;
57317;SDS011;43157;50.982;18.132;2023-04-07T06:17:59;32.30;;;14.20;;
57317;SDS011;43157;50.982;18.132;2023-04-07T06:20:24;35.20;;;14.20;;
57317;SDS011;43157;50.982;18.132;2023-04-07T06:22:52;29.50;;;13.90;;
57317;SDS011;43157;50.982;18.132;2023-04-07T06:25:19;30.30;;;12.50;;
57317;SDS011;43157;50.982;18.132;2023-04-07T06:27:45;29.80;;;12.40;;
57317;SDS011;43157;50.982;18.132;2023-04-07T06:30:11;28.70;;;11.70;;
57317;SDS011;43157;50.982;18.132;2023-04-07T06:32:37;25.70;;;11.10;;
57317;SDS011;43157;50.982;18.132;2023-04-07T06:35:03;31.40;;;13.80;;
57317;SDS011;43157;50.982;18.132;2023-04-07T06:37:29;28.50;;;11.70;;
57317;SDS011;43157;50.982;18.132;2023-04-07T06:39:55;27.60;;;12.70;;
57317;SDS011;43157;50.982;18.132;2023-04-07T06:42:21;30.60;;;12.90;;
57317;SDS011;43157;50.982;18.132;2023-04-07T06:44:46;28.80;;;13.40;;
57317;SDS011;43157;50.982;18.132;2023-04-07T06:47:12;29.60;;;13.30;;
57317;SDS011;43157;50.982;18.132;2023-04-07T06:49:38;27.80;;;12.80;;
57317;SDS011;43157;50.982;18.132;2023-04-07T06:52:04;27.10;;;12.50;;
57317;SDS011;43157;50.982;18.132;2023-04-07T06:54:30;36.90;;;17.50;;
57317;SDS011;43157;50.982;18.132;2023-04-07T06:56:56;32.40;;;12.80;;
57317;SDS011;43157;50.982;18.132;2023-04-07T06:59:22;27.70;;;13.00;;
57317;SDS011;43157;50.982;18.132;2023-04-07T07:01:47;30.20;;;12.70;;
57317;SDS011;43157;50.982;18.132;2023-04-07T07:04:13;31.20;;;13.90;;
57317;SDS011;43157;50.982;18.132;2023-04-07T07:06:39;26.50;;;12.40;;
57317;SDS011;43157;50.982;18.132;2023-04-07T07:09:05;31.00;;;13.30;;
57317;SDS011;43157;50.982;18.132;2023-04-07T07:11:30;33.80;;;13.80;;
57317;SDS011;43157;50.982;18.132;2023-04-07T07:13:56;29.90;;;13.70;;
57317;SDS011;43157;50.982;18.132;2023-04-07T07:16:22;31.40;;;14.70;;
57317;SDS011;43157;50.982;18.132;2023-04-07T07:18:50;42.20;;;18.00;;
57317;SDS011;43157;50.982;18.132;2023-04-07T07:21:19;33.30;;;14.40;;
57317;SDS011;43157;50.982;18.132;2023-04-07T07:23:45;30.40;;;14.10;;
57317;SDS011;43157;50.982;18.132;2023-04-07T07:26:11;31.20;;;12.70;;
57317;SDS011;43157;50.982;18.132;2023-04-07T07:28:36;31.10;;;14.00;;
57317;SDS011;43157;50.982;18.132;2023-04-07T07:31:11;33.60;;;14.40;;
57317;SDS011;43157;50.982;18.132;2023-04-07T07:33:40;28.50;;;13.70;;
57317;SDS011;43157;50.982;18.132;2023-04-07T07:36:08;42.80;;;18.30;;
57317;SDS011;43157;50.982;18.132;2023-04-07T07:38:34;39.70;;;19.70;;
57317;SDS011;43157;50.982;18.132;2023-04-07T07:41:01;34.10;;;12.80;;
57317;SDS011;43157;50.982;18.132;2023-04-07T07:43:27;32.20;;;14.20;;
57317;SDS011;43157;50.982;18.132;2023-04-07T07:45:53;32.30;;;15.50;;
57317;SDS011;43157;50.982;18.132;2023-04-07T07:48:18;35.40;;;15.80;;
57317;SDS011;43157;50.982;18.132;2023-04-07T07:50:44;32.60;;;15.30;;
57317;SDS011;43157;50.982;18.132;2023-04-07T07:53:11;31.60;;;15.30;;
57317;SDS011;43157;50.982;18.132;2023-04-07T07:55:37;37.40;;;16.90;;
57317;SDS011;43157;50.982;18.132;2023-04-07T07:58:02;31.60;;;14.50;;
57317;SDS011;43157;50.982;18.132;2023-04-07T08:00:28;39.00;;;18.30;;
57317;SDS011;43157;50.982;18.132;2023-04-07T08:02:54;33.50;;;14.60;;
57317;SDS011;43157;50.982;18.132;2023-04-07T08:05:20;34.30;;;17.30;;
57317;SDS011;43157;50.982;18.132;2023-04-07T08:07:46;32.90;;;14.70;;
57317;SDS011;43157;50.982;18.132;2023-04-07T08:10:11;31.00;;;14.70;;
57317;SDS011;43157;50.982;18.132;2023-04-07T08:12:37;30.40;;;14.50;;
57317;SDS011;43157;50.982;18.132;2023-04-07T08:15:04;33.40;;;14.50;;
57317;SDS011;43157;50.982;18.132;2023-04-07T08:17:31;35.10;;;16.50;;
57317;SDS011;43157;50.982;18.132;2023-04-07T08:19:57;34.70;;;16.40;;
57317;SDS011;43157;50.982;18.132;2023-04-07T08:22:23;37.20;;;17.10;;
57317;SDS011;43157;50.982;18.132;2023-04-07T08:24:48;40.60;;;19.60;;
57317;SDS011;43157;50.982;18.132;2023-04-07T08:27:14;53.50;;;24.20;;
57317;SDS011;43157;50.982;18.132;2023-04-07T08:29:40;35.30;;;15.80;;
57317;SDS011;43157;50.982;18.132;2023-04-07T08:32:05;48.30;;;26.70;;
57317;SDS011;43157;50.982;18.132;2023-04-07T08:34:31;49.40;;;24.90;;
57317;SDS011;43157;50.982;18.132;2023-04-07T08:36:57;47.80;;;21.30;;
57317;SDS011;43157;50.982;18.132;2023-04-07T08:39:22;55.80;;;24.90;;
57317;SDS011;43157;50.982;18.132;2023-04-07T08:41:49;62.40;;;25.50;;
57317;SDS011;43157;50.982;18.132;2023-04-07T08:44:15;39.80;;;18.50;;
57317;SDS011;43157;50.982;18.132;2023-04-07T08:46:42;37.10;;;15.30;;
57317;SDS011;43157;50.982;18.132;2023-04-07T08:49:09;33.00;;;16.10;;
57317;SDS011;43157;50.982;18.132;2023-04-07T08:51:39;42.50;;;20.50;;
57317;SDS011;43157;50.982;18.132;2023-04-07T08:54:11;36.50;;;15.90;;
57317;SDS011;43157;50.982;18.132;2023-04-07T08:56:38;38.10;;;17.00;;
57317;SDS011;43157;50.982;18.132;2023-04-07T08:59:09;49.30;;;20.10;;
57317;SDS011;43157;50.982;18.132;2023-04-07T09:01:36;63.50;;;26.90;;
57317;SDS011;43157;50.982;18.132;2023-04-07T09:04:05;31.70;;;14.00;;
57317;SDS011;43157;50.982;18.132;2023-04-07T09:06:34;27.80;;;13.50;;
57317;SDS011;43157;50.982;18.132;2023-04-07T09:09:01;32.60;;;14.40;;
57317;SDS011;43157;50.982;18.132;2023-04-07T09:11:28;29.00;;;12.90;;
57317;SDS011;43157;50.982;18.132;2023-04-07T09:13:54;37.60;;;17.80;;
57317;SDS011;43157;50.982;18.132;2023-04-07T09:16:21;31.20;;;17.40;;
57317;SDS011;43157;50.982;18.132;2023-04-07T09:18:48;33.10;;;15.50;;
57317;SDS011;43157;50.982;18.132;2023-04-07T09:21:14;27.90;;;12.90;;
57317;SDS011;43157;50.982;18.132;2023-04-07T09:23:40;29.60;;;13.20;;
57317;SDS011;43157;50.982;18.132;2023-04-07T09:26:40;32.80;;;14.70;;
57317;SDS011;43157;50.982;18.132;2023-04-07T09:28:59;30.20;;;15.80;;
57317;SDS011;43157;50.982;18.132;2023-04-07T09:31:46;29.40;;;14.20;;
57317;SDS011;43157;50.982;18.132;2023-04-07T09:34:29;33.10;;;14.20;;
57317;SDS011;43157;50.982;18.132;2023-04-07T09:36:56;34.00;;;16.50;;
57317;SDS011;43157;50.982;18.132;2023-04-07T09:39:23;40.90;;;20.20;;
57317;SDS011;43157;50.982;18.132;2023-04-07T09:41:49;36.00;;;16.70;;
57317;SDS011;43157;50.982;18.132;2023-04-07T09:44:19;31.90;;;14.00;;
57317;SDS011;43157;50.982;18.132;2023-04-07T09:46:57;29.00;;;13.50;;
57317;SDS011;43157;50.982;18.132;2023-04-07T09:49:24;34.00;;;17.00;;
57317;SDS011;43157;50.982;18.132;2023-04-07T09:52:02;39.70;;;18.60;;
57317;SDS011;43157;50.982;18.132;2023-04-07T09:54:40;34.40;;;16.70;;
57317;SDS011;43157;50.982;18.132;2023-04-07T09:57:10;34.10;;;18.20;;
57317;SDS011;43157;50.982;18.132;2023-04-07T09:59:37;37.90;;;18.30;;
57317;SDS011;43157;50.982;18.132;2023-04-07T10:02:06;36.30;;;17.20;;
57317;SDS011;43157;50.982;18.132;2023-04-07T10:04:33;29.50;;;12.90;;
57317;SDS011;43157;50.982;18.132;2023-04-07T10:06:59;34.00;;;15.00;;
57317;SDS011;43157;50.982;18.132;2023-04-07T10:09:25;32.30;;;14.70;;
57317;SDS011;43157;50.982;18.132;2023-04-07T10:11:53;33.80;;;15.20;;
57317;SDS011;43157;50.982;18.132;2023-04-07T10:14:21;33.30;;;17.00;;
57317;SDS011;43157;50.982;18.132;2023-04-07T10:16:51;27.40;;;12.60;;
57317;SDS011;43157;50.982;18.132;2023-04-07T10:19:17;27.40;;;12.20;;
57317;SDS011;43157;50.982;18.132;2023-04-07T10:21:43;27.60;;;13.20;;
57317;SDS011;43157;50.982;18.132;2023-04-07T10:27:02;29.20;;;13.80;;
57317;SDS011;43157;50.982;18.132;2023-04-07T10:29:42;27.60;;;12.50;;
57317;SDS011;43157;50.982;18.132;2023-04-07T10:32:10;26.80;;;12.40;;
57317;SDS011;43157;50.982;18.132;2023-04-07T10:37:15;33.00;;;16.10;;
57317;SDS011;43157;50.982;18.132;2023-04-07T10:39:48;25.90;;;10.00;;
57317;SDS011;43157;50.982;18.132;2023-04-07T10:45:06;29.40;;;12.50;;
57317;SDS011;43157;50.982;18.132;2023-04-07T10:50:28;34.40;;;15.60;;
57317;SDS011;43157;50.982;18.132;2023-04-07T10:53:06;41.00;;;19.70;;
57317;SDS011;43157;50.982;18.132;2023-04-07T10:58:12;29.30;;;13.80;;
57317;SDS011;43157;50.982;18.132;2023-04-07T11:00:41;26.60;;;11.60;;
57317;SDS011;43157;50.982;18.132;2023-04-07T11:03:09;33.90;;;16.10;;
57317;SDS011;43157;50.982;18.132;2023-04-07T11:05:38;34.40;;;16.50;;
57317;SDS011;43157;50.982;18.132;2023-04-07T11:08:04;35.70;;;17.30;;
57317;SDS011;43157;50.982;18.132;2023-04-07T11:10:32;30.80;;;13.60;;
57317;SDS011;43157;50.982;18.132;2023-04-07T11:12:59;29.50;;;12.90;;
57317;SDS011;43157;50.982;18.132;2023-04-07T11:15:32;33.90;;;15.10;;
57317;SDS011;43157;50.982;18.132;2023-04-07T11:18:09;34.20;;;14.40;;
57317;SDS011;43157;50.982;18.132;2023-04-07T11:20:41;26.50;;;11.50;;
57317;SDS011;43157;50.982;18.132;2023-04-07T11:23:18;29.40;;;13.50;;
57317;SDS011;43157;50.982;18.132;2023-04-07T11:25:46;36.10;;;16.60;;
57317;SDS011;43157;50.982;18.132;2023-04-07T11:28:13;45.50;;;19.10;;
57317;SDS011;43157;50.982;18.132;2023-04-07T11:30:47;118.60;;;43.90;;
57317;SDS011;43157;50.982;18.132;2023-04-07T11:33:20;160.70;;;60.70;;
57317;SDS011;43157;50.982;18.132;2023-04-07T11:35:54;77.20;;;38.50;;
57317;SDS011;43157;50.982;18.132;2023-04-07T11:38:25;47.60;;;22.00;;
57317;SDS011;43157;50.982;18.132;2023-04-07T11:40:52;38.50;;;16.20;;
57317;SDS011;43157;50.982;18.132;2023-04-07T11:43:20;38.00;;;16.70;;
57317;SDS011;43157;50.982;18.132;2023-04-07T11:46:06;36.20;;;18.60;;
57317;SDS011;43157;50.982;18.132;2023-04-07T11:48:39;30.00;;;12.40;;
57317;SDS011;43157;50.982;18.132;2023-04-07T11:51:14;34.40;;;14.60;;
57317;SDS011;43157;50.982;18.132;2023-04-07T11:53:55;45.70;;;18.10;;
57317;SDS011;43157;50.982;18.132;2023-04-07T11:56:44;38.20;;;14.30;;
57317;SDS011;43157;50.982;18.132;2023-04-07T11:59:23;48.00;;;19.40;;
57317;SDS011;43157;50.982;18.132;2023-04-07T12:01:50;60.40;;;24.00;;
57317;SDS011;43157;50.982;18.132;2023-04-07T12:04:17;41.90;;;19.20;;
57317;SDS011;43157;50.982;18.132;2023-04-07T12:06:44;61.90;;;24.40;;
57317;SDS011;43157;50.982;18.132;2023-04-07T12:09:31;55.10;;;22.70;;
57317;SDS011;43157;50.982;18.132;2023-04-07T12:12:00;106.50;;;35.60;;
57317;SDS011;43157;50.982;18.132;2023-04-07T12:14:27;79.90;;;29.00;;
57317;SDS011;43157;50.982;18.132;2023-04-07T12:16:53;62.70;;;26.30;;
57317;SDS011;43157;50.982;18.132;2023-04-07T12:19:24;62.30;;;20.60;;
57317;SDS011;43157;50.982;18.132;2023-04-07T12:21:54;63.70;;;23.00;;
57317;SDS011;43157;50.982;18.132;2023-04-07T12:24:20;38.80;;;18.80;;
57317;SDS011;43157;50.982;18.132;2023-04-07T12:26:46;30.60;;;14.20;;
57317;SDS011;43157;50.982;18.132;2023-04-07T12:29:12;48.20;;;20.30;;
57317;SDS011;43157;50.982;18.132;2023-04-07T12:31:38;36.70;;;17.00;;
57317;SDS011;43157;50.982;18.132;2023-04-07T12:34:04;39.70;;;17.50;;
57317;SDS011;43157;50.982;18.132;2023-04-07T12:36:30;41.60;;;17.80;;
57317;SDS011;43157;50.982;18.132;2023-04-07T12:38:55;50.00;;;21.50;;
57317;SDS011;43157;50.982;18.132;2023-04-07T12:41:21;53.50;;;24.20;;
57317;SDS011;43157;50.982;18.132;2023-04-07T12:43:48;34.60;;;17.50;;
57317;SDS011;43157;50.982;18.132;2023-04-07T12:46:14;35.80;;;17.20;;
57317;SDS011;43157;50.982;18.132;2023-04-07T12:48:40;25.90;;;11.10;;
57317;SDS011;43157;50.982;18.132;2023-04-07T12:51:05;29.40;;;13.10;;
57317;SDS011;43157;50.982;18.132;2023-04-07T12:53:31;38.80;;;18.40;;
57317;SDS011;43157;50.982;18.132;2023-04-07T12:55:57;35.50;;;18.00;;
57317;SDS011;43157;50.982;18.132;2023-04-07T12:58:23;68.00;;;29.60;;
57317;SDS011;43157;50.982;18.132;2023-04-07T13:00:49;40.30;;;20.50;;
57317;SDS011;43157;50.982;18.132;2023-04-07T13:03:15;41.40;;;19.80;;
57317;SDS011;43157;50.982;18.132;2023-04-07T13:05:41;60.50;;;25.30;;
57317;SDS011;43157;50.982;18.132;2023-04-07T13:08:07;53.70;;;23.80;;
57317;SDS011;43157;50.982;18.132;2023-04-07T13:10:33;65.10;;;27.60;;
57317;SDS011;43157;50.982;18.132;2023-04-07T13:12:58;39.20;;;17.30;;
57317;SDS011;43157;50.982;18.132;2023-04-07T13:15:24;27.20;;;13.00;;
57317;SDS011;43157;50.982;18.132;2023-04-07T13:17:49;38.60;;;17.00;;
57317;SDS011;43157;50.982;18.132;2023-04-07T13:20:15;24.50;;;11.80;;
57317;SDS011;43157;50.982;18.132;2023-04-07T13:22:41;29.00;;;11.90;;
57317;SDS011;43157;50.982;18.132;2023-04-07T13:25:07;21.00;;;9.40;;
57317;SDS011;43157;50.982;18.132;2023-04-07T13:27:33;26.60;;;12.50;;
57317;SDS011;43157;50.982;18.132;2023-04-07T13:29:58;22.10;;;10.70;;
57317;SDS011;43157;50.982;18.132;2023-04-07T13:32:24;19.70;;;9.00;;
57317;SDS011;43157;50.982;18.132;2023-04-07T13:34:50;20.20;;;8.20;;
57317;SDS011;43157;50.982;18.132;2023-04-07T13:37:17;23.20;;;10.40;;
57317;SDS011;43157;50.982;18.132;2023-04-07T13:39:43;24.20;;;10.40;;
57317;SDS011;43157;50.982;18.132;2023-04-07T13:42:10;21.20;;;9.00;;
57317;SDS011;43157;50.982;18.132;2023-04-07T13:44:35;22.50;;;10.30;;
57317;SDS011;43157;50.982;18.132;2023-04-07T13:47:03;22.50;;;9.40;;
57317;SDS011;43157;50.982;18.132;2023-04-07T13:49:29;24.40;;;10.60;;
57317;SDS011;43157;50.982;18.132;2023-04-07T13:51:54;67.10;;;24.40;;
57317;SDS011;43157;50.982;18.132;2023-04-07T13:54:20;31.80;;;13.40;;
57317;SDS011;43157;50.982;18.132;2023-04-07T13:56:46;32.50;;;11.70;;
57317;SDS011;43157;50.982;18.132;2023-04-07T13:59:15;39.30;;;16.70;;
57317;SDS011;43157;50.982;18.132;2023-04-07T14:01:41;41.10;;;18.90;;
57317;SDS011;43157;50.982;18.132;2023-04-07T14:04:06;27.80;;;13.40;;
57317;SDS011;43157;50.982;18.132;2023-04-07T14:06:32;22.00;;;10.20;;
57317;SDS011;43157;50.982;18.132;2023-04-07T14:09:00;40.80;;;17.90;;
57317;SDS011;43157;50.982;18.132;2023-04-07T14:11:26;56.50;;;23.50;;
57317;SDS011;43157;50.982;18.132;2023-04-07T14:13:53;18.70;;;7.70;;
57317;SDS011;43157;50.982;18.132;2023-04-07T14:16:21;64.60;;;27.20;;
57317;SDS011;43157;50.982;18.132;2023-04-07T14:18:46;40.80;;;18.70;;
57317;SDS011;43157;50.982;18.132;2023-04-07T14:21:13;61.70;;;25.30;;
57317;SDS011;43157;50.982;18.132;2023-04-07T14:23:39;70.80;;;24.50;;
57317;SDS011;43157;50.982;18.132;2023-04-07T14:26:10;41.20;;;20.10;;
57317;SDS011;43157;50.982;18.132;2023-04-07T14:28:36;61.20;;;30.10;;
57317;SDS011;43157;50.982;18.132;2023-04-07T14:31:02;74.10;;;29.40;;
57317;SDS011;43157;50.982;18.132;2023-04-07T14:33:28;37.40;;;16.30;;
57317;SDS011;43157;50.982;18.132;2023-04-07T14:35:53;43.80;;;18.00;;
57317;SDS011;43157;50.982;18.132;2023-04-07T14:38:19;22.80;;;9.60;;